Time;durP1;ratioP1;P1;durP2;ratioP2;P2;SDS_P1;SDS_P2;PMS_P1;PMS_P2;Temp;Humidity;BMP_temperature;BMP_pressure;BME280_temperature;BME280_humidity;BME280_pressure;Samples;Min_cycle;Max_cycle;Signal;HPM_P1;HPM_P2
2023/10/26 00:02:11;;;;;;;3.17;2.40;;;;;;;20.76;46.26;99611.44;5023762;28;20056;-68
2023/10/26 00:04:36;;;;;;;2.95;2.30;;;;;;;20.86;46.19;99631.34;5023260;28;20484;-68
2023/10/26 00:07:04;;;;;;;2.40;2.20;;;;;;;20.87;46.19;99628.47;5021500;28;20052;-68
2023/10/26 00:09:29;;;;;;;2.63;2.28;;;;;;;20.79;46.30;99616.31;5020122;28;20743;-69
2023/10/26 00:11:55;;;;;;;2.78;2.30;;;;;;;20.84;46.25;99628.91;5022740;28;20085;-68
2023/10/26 00:14:20;;;;;;;2.20;2.00;;;;;;;20.84;46.36;99636.84;5024160;28;21158;-68
2023/10/26 00:16:46;;;;;;;3.03;2.45;;;;;;;20.82;46.31;99641.53;5022023;28;21117;-68
2023/10/26 00:19:11;;;;;;;2.40;2.20;;;;;;;20.81;46.50;99643.34;5027214;28;20037;-68
2023/10/26 00:21:37;;;;;;;3.08;2.47;;;;;;;20.85;46.14;99629.72;5022908;28;20403;-68
2023/10/26 00:24:02;;;;;;;2.58;2.10;;;;;;;20.82;46.36;99633.59;5021623;28;20037;-68
2023/10/26 00:26:28;;;;;;;2.95;2.40;;;;;;;20.83;46.19;99632.59;5025561;28;20686;-68
2023/10/26 00:28:54;;;;;;;2.70;2.20;;;;;;;20.83;46.24;99623.84;5024444;28;20038;-68
2023/10/26 00:31:19;;;;;;;2.65;2.40;;;;;;;20.81;46.15;99632.78;5021160;28;20435;-68
2023/10/26 00:33:45;;;;;;;3.08;2.38;;;;;;;20.83;46.16;99626.50;5020814;28;20049;-68
2023/10/26 00:36:10;;;;;;;2.60;2.40;;;;;;;20.83;46.23;99629.13;5025676;28;20052;-68
2023/10/26 00:38:36;;;;;;;2.90;2.42;;;;;;;20.80;46.35;99635.63;5046414;28;20041;-68
2023/10/26 00:41:02;;;;;;;3.00;2.25;;;;;;;20.65;46.25;99608.72;5023434;28;20088;-68
2023/10/26 00:43:27;;;;;;;3.88;2.38;;;;;;;20.80;46.16;99635.63;5023646;28;20041;-68
2023/10/26 00:45:53;;;;;;;2.65;2.30;;;;;;;20.77;46.49;99636.88;5020852;28;20037;-68
2023/10/26 00:48:20;;;;;;;6.43;2.47;;;;;;;20.77;46.19;99639.53;5028932;28;20056;-68
2023/10/26 00:50:47;;;;;;;3.83;2.83;;;;;;;20.75;46.42;99643.41;5025607;28;20368;-68
2023/10/26 00:53:15;;;;;;;3.05;2.42;;;;;;;20.73;46.46;99640.19;5021907;28;20129;-68
2023/10/26 00:55:41;;;;;;;3.08;2.17;;;;;;;20.77;46.19;99646.66;5021921;28;20044;-68
2023/10/26 00:58:09;;;;;;;2.47;2.28;;;;;;;20.73;46.17;99638.34;5024062;28;20040;-68
2023/10/26 01:00:37;;;;;;;3.50;2.50;;;;;;;20.76;46.43;99650.31;5023002;28;20464;-68
2023/10/26 01:03:04;;;;;;;2.85;2.30;;;;;;;20.75;46.27;99643.41;5028231;28;20113;-68
2023/10/26 01:05:29;;;;;;;2.80;2.38;;;;;;;20.75;46.19;99654.00;5021177;28;20045;-68
2023/10/26 01:07:55;;;;;;;2.38;2.17;;;;;;;20.77;46.31;99652.75;5022015;28;20068;-68
2023/10/26 01:10:20;;;;;;;2.65;2.33;;;;;;;20.76;46.42;99655.63;5021082;28;20469;-68
2023/10/26 01:12:46;;;;;;;2.70;2.42;;;;;;;20.75;46.36;99657.44;5048716;28;20534;-68
2023/10/26 01:15:11;;;;;;;3.45;2.33;;;;;;;20.73;46.51;99662.16;5029722;28;20045;-68
2023/10/26 01:17:37;;;;;;;3.00;2.53;;;;;;;20.75;46.26;99656.66;5002247;28;20042;-68
2023/10/26 01:20:05;;;;;;;2.85;2.47;;;;;;;20.77;46.19;99654.59;5027539;28;20423;-69
2023/10/26 01:22:32;;;;;;;2.50;2.10;;;;;;;20.70;46.31;99645.91;5024845;28;20038;-68
2023/10/26 01:24:57;;;;;;;3.53;2.50;;;;;;;20.73;46.31;99656.06;5022036;28;20090;-68
2023/10/26 01:27:23;;;;;;;2.75;2.45;;;;;;;20.71;46.22;99650.16;5033316;28;20616;-68
2023/10/26 01:29:49;;;;;;;2.83;2.50;;;;;;;20.72;46.45;99651.78;5026358;28;20032;-68
2023/10/26 01:32:14;;;;;;;2.50;2.17;;;;;;;20.58;46.23;99635.19;5027205;28;20041;-68
2023/10/26 01:34:40;;;;;;;2.40;2.17;;;;;;;20.70;46.37;99654.66;5026799;28;20068;-68
2023/10/26 01:37:05;;;;;;;3.10;2.50;;;;;;;20.67;46.32;99655.06;5024334;28;20030;-68
2023/10/26 01:39:32;;;;;;;2.53;2.33;;;;;;;20.66;46.25;99656.09;5026350;28;20041;-68
2023/10/26 01:41:58;;;;;;;3.17;2.42;;;;;;;20.54;46.29;99634.00;5026489;28;20042;-68
2023/10/26 01:44:24;;;;;;;3.63;2.63;;;;;;;20.70;46.24;99673.16;5034635;28;20053;-68
2023/10/26 01:46:49;;;;;;;2.58;2.35;;;;;;;20.69;46.46;99668.91;5024547;28;20044;-68
2023/10/26 01:49:15;;;;;;;2.50;2.30;;;;;;;20.65;46.50;99673.00;5022095;28;20069;-68
2023/10/26 01:51:40;;;;;;;2.72;2.28;;;;;;;20.64;46.14;99673.19;5053573;28;20033;-68
2023/10/26 01:54:06;;;;;;;3.42;2.47;;;;;;;20.70;46.47;99682.94;5030856;28;20049;-68
2023/10/26 01:56:32;;;;;;;3.40;2.47;;;;;;;20.68;46.45;99684.97;5028462;28;20045;-68
2023/10/26 01:58:57;;;;;;;3.42;2.53;;;;;;;20.67;46.40;99681.53;5034851;28;20037;-69
2023/10/26 02:01:24;;;;;;;3.78;2.85;;;;;;;20.68;46.43;99677.88;5029432;28;20132;-68
2023/10/26 02:03:51;;;;;;;3.80;2.63;;;;;;;20.66;46.31;99674.63;5023660;28;20648;-68
2023/10/26 02:06:16;;;;;;;2.40;2.20;;;;;;;20.64;46.36;99671.34;5021293;28;20045;-68
2023/10/26 02:08:42;;;;;;;3.22;2.50;;;;;;;20.66;46.52;99677.25;5028174;28;20122;-68
2023/10/26 02:11:08;;;;;;;3.75;2.63;;;;;;;20.62;46.37;99668.09;5024621;28;20057;-68
2023/10/26 02:13:36;;;;;;;3.47;2.60;;;;;;;20.65;46.43;99673.00;5024866;28;20072;-68
2023/10/26 02:16:02;;;;;;;3.35;2.83;;;;;;;20.66;46.44;99669.34;5039434;28;20037;-68
2023/10/26 02:18:29;;;;;;;3.00;2.60;;;;;;;20.52;46.69;99650.06;5031107;28;20040;-68
2023/10/26 02:20:55;;;;;;;2.70;2.28;;;;;;;20.64;46.33;99676.63;5032052;28;20679;-68
2023/10/26 02:23:21;;;;;;;3.28;2.55;;;;;;;20.64;46.44;99675.81;5021392;28;20041;-68
2023/10/26 02:25:47;;;;;;;3.63;2.75;;;;;;;20.61;46.44;99679.72;5023700;28;20052;-68
2023/10/26 02:28:16;;;;;;;4.57;3.00;;;;;;;20.60;46.52;99675.44;5047775;28;20782;-68
2023/10/26 02:30:43;;;;;;;4.70;2.53;;;;;;;20.62;46.45;99680.53;5024376;28;20037;-68
2023/10/26 02:33:09;;;;;;;3.60;2.83;;;;;;;20.59;46.39;99678.31;5024466;28;20045;-68
2023/10/26 02:35:34;;;;;;;2.85;2.53;;;;;;;20.58;46.35;99672.22;5021589;28;20153;-68
2023/10/26 02:38:00;;;;;;;3.28;2.78;;;;;;;20.59;46.40;99684.41;5025837;28;20049;-68
2023/10/26 02:40:25;;;;;;;3.08;2.50;;;;;;;20.62;46.30;99691.09;5022973;28;20049;-68
2023/10/26 02:42:51;;;;;;;3.42;2.90;;;;;;;20.60;46.45;99691.31;5022023;28;20472;-68
2023/10/26 02:45:16;;;;;;;3.03;2.50;;;;;;;20.62;46.28;99704.31;5024987;28;20037;-68
2023/10/26 02:47:42;;;;;;;2.78;2.58;;;;;;;20.61;46.45;99705.34;5042915;28;20045;-67
2023/10/26 02:50:08;;;;;;;4.03;3.10;;;;;;;20.61;46.43;99710.66;5023522;28;20038;-68
2023/10/26 02:52:33;;;;;;;3.20;2.78;;;;;;;20.60;46.46;99707.19;5023017;28;20037;-68
2023/10/26 02:54:59;;;;;;;3.58;2.63;;;;;;;20.59;46.40;99712.69;5026672;28;20376;-68
2023/10/26 02:57:24;;;;;;;3.80;2.72;;;;;;;20.60;46.39;99709.03;5023257;28;20076;-68
2023/10/26 02:59:50;;;;;;;3.83;3.00;;;;;;;20.60;46.35;99707.19;5032847;28;20145;-68
2023/10/26 03:02:15;;;;;;;4.25;3.25;;;;;;;20.58;46.39;99711.06;5023698;28;20033;-68
2023/10/26 03:04:42;;;;;;;4.13;3.20;;;;;;;20.57;46.65;99707.63;5024814;28;20037;-68
2023/10/26 03:07:10;;;;;;;3.13;2.65;;;;;;;20.58;46.31;99705.78;5022350;28;20564;-68
2023/10/26 03:09:35;;;;;;;3.38;3.08;;;;;;;20.58;46.46;99711.06;5025913;28;20685;-68
2023/10/26 03:12:01;;;;;;;3.85;2.78;;;;;;;20.54;46.64;99701.94;5023127;28;20064;-68
2023/10/26 03:14:28;;;;;;;3.33;3.03;;;;;;;20.56;46.55;99697.25;5022609;28;20049;-68
2023/10/26 03:16:53;;;;;;;3.28;2.90;;;;;;;20.52;46.38;99692.38;5021979;28;20041;-68
2023/10/26 03:19:19;;;;;;;4.72;3.70;;;;;;;20.56;46.40;99706.00;5027029;28;20038;-68
2023/10/26 03:21:44;;;;;;;4.07;2.97;;;;;;;20.52;46.59;99700.31;5023957;28;20037;-68
2023/10/26 03:24:10;;;;;;;3.88;2.72;;;;;;;20.56;46.50;99702.53;5024759;28;20044;-68
2023/10/26 03:26:36;;;;;;;5.30;3.25;;;;;;;20.54;46.48;99705.41;5025860;28;20048;-68
2023/10/26 03:29:02;;;;;;;3.85;3.03;;;;;;;20.49;46.44;99697.28;5024549;28;20032;-68
2023/10/26 03:31:28;;;;;;;3.42;2.95;;;;;;;20.55;46.45;99703.56;5024121;28;20144;-67
2023/10/26 03:33:55;;;;;;;4.10;3.20;;;;;;;20.53;46.50;99703.78;5039246;28;20120;-68
2023/10/26 03:36:21;;;;;;;4.20;3.40;;;;;;;20.56;46.46;99706.00;5021987;28;20399;-68
2023/10/26 03:38:47;;;;;;;3.60;3.10;;;;;;;20.55;46.26;99707.03;5030934;28;20882;-68
2023/10/26 03:41:13;;;;;;;5.20;3.45;;;;;;;20.47;46.28;99697.50;5023807;28;20029;-68
2023/10/26 03:43:39;;;;;;;3.30;3.00;;;;;;;20.47;46.53;99692.22;5024640;28;20048;-68
2023/10/26 03:46:05;;;;;;;4.43;3.38;;;;;;;20.50;46.59;99699.72;5022166;28;20034;-68
2023/10/26 03:48:32;;;;;;;4.05;2.90;;;;;;;20.51;46.61;99701.34;5026380;28;20080;-68
2023/10/26 03:50:58;;;;;;;4.40;3.55;;;;;;;20.50;46.47;99697.09;5026554;28;20037;-68
2023/10/26 03:53:24;;;;;;;4.30;3.35;;;;;;;20.51;46.32;99701.34;5031787;28;20036;-68
2023/10/26 03:55:50;;;;;;;6.10;3.33;;;;;;;20.50;46.35;99691.78;5024207;28;20771;-68
2023/10/26 03:58:15;;;;;;;3.70;3.25;;;;;;;20.49;46.41;99686.72;5025208;28;20483;-68
2023/10/26 04:00:41;;;;;;;3.85;3.20;;;;;;;20.51;46.32;99697.91;5026435;28;20044;-68
2023/10/26 04:03:07;;;;;;;4.45;3.50;;;;;;;20.49;46.52;99689.38;5026484;28;20645;-68
2023/10/26 04:05:33;;;;;;;4.50;3.40;;;;;;;20.47;46.56;99691.41;5028777;28;20037;-68
2023/10/26 04:08:02;;;;;;;4.43;3.50;;;;;;;20.48;46.69;99693.84;5024758;28;20067;-68
2023/10/26 04:10:28;;;;;;;3.90;3.20;;;;;;;20.49;46.40;99684.88;5022869;28;20103;-68
2023/10/26 04:12:54;;;;;;;4.55;3.97;;;;;;;20.48;46.54;99696.47;5022263;28;20139;-68
2023/10/26 04:15:20;;;;;;;3.90;3.30;;;;;;;20.48;46.49;99695.69;5024640;28;20556;-68
2023/10/26 04:17:45;;;;;;;3.50;3.20;;;;;;;20.46;46.63;99701.16;5023176;28;20036;-67
2023/10/26 04:20:11;;;;;;;3.60;3.25;;;;;;;20.48;46.60;99700.97;5025182;28;20487;-68
2023/10/26 04:22:36;;;;;;;4.68;3.40;;;;;;;20.47;46.64;99708.09;5020993;28;20136;-68
2023/10/26 04:25:02;;;;;;;5.47;3.50;;;;;;;20.48;46.68;99698.31;5025693;28;20033;-68
2023/10/26 04:27:28;;;;;;;4.32;3.78;;;;;;;20.43;46.51;99693.63;5020781;28;20798;-68
2023/10/26 04:29:53;;;;;;;4.82;3.47;;;;;;;20.46;46.57;99701.16;5011589;28;20057;-68
2023/10/26 04:32:19;;;;;;;5.13;3.60;;;;;;;20.45;46.47;99704.00;5022728;28;20088;-68
2023/10/26 04:34:45;;;;;;;4.55;3.63;;;;;;;20.46;46.40;99700.34;5022929;28;20076;-68
2023/10/26 04:37:10;;;;;;;3.67;3.28;;;;;;;20.45;46.43;99698.72;5024830;28;20135;-68
2023/10/26 04:39:37;;;;;;;5.07;3.55;;;;;;;20.40;46.53;99691.38;5024515;28;20578;-68
2023/10/26 04:42:03;;;;;;;3.97;3.30;;;;;;;20.45;46.46;99685.50;5021542;28;20021;-67
2023/10/26 04:44:30;;;;;;;3.95;3.40;;;;;;;20.44;46.58;99691.81;5022752;28;20041;-68
2023/10/26 04:46:55;;;;;;;4.40;3.55;;;;;;;20.44;46.46;99692.63;5023229;28;21316;-68
2023/10/26 04:49:21;;;;;;;4.15;3.38;;;;;;;20.44;46.58;99686.53;5024294;28;20146;-69
2023/10/26 04:51:46;;;;;;;4.72;3.80;;;;;;;20.45;46.50;99682.84;5027390;28;20037;-68
2023/10/26 04:54:12;;;;;;;5.03;3.67;;;;;;;20.44;46.58;99678.59;5024474;28;20045;-67
2023/10/26 04:56:37;;;;;;;4.53;3.78;;;;;;;20.46;46.51;99679.19;5025211;28;20037;-68
2023/10/26 04:59:03;;;;;;;4.00;3.53;;;;;;;20.45;46.53;99683.66;5028192;28;20041;-68
2023/10/26 05:01:28;;;;;;;5.43;3.90;;;;;;;20.44;46.47;99686.53;5025382;28;20037;-67
2023/10/26 05:03:54;;;;;;;4.30;3.50;;;;;;;20.45;46.58;99690.78;5025968;28;20572;-68
2023/10/26 05:06:19;;;;;;;4.00;3.38;;;;;;;20.46;46.37;99682.63;5012849;28;20581;-68
2023/10/26 05:08:46;;;;;;;3.90;3.47;;;;;;;20.44;46.40;99684.69;5034141;28;20041;-68
2023/10/26 05:11:12;;;;;;;4.05;3.58;;;;;;;20.41;46.62;99687.75;5025941;28;20151;-68
2023/10/26 05:13:37;;;;;;;4.65;3.88;;;;;;;20.48;46.32;99682.44;5036254;28;20163;-68
2023/10/26 05:16:03;;;;;;;5.18;3.55;;;;;;;20.34;46.71;99657.88;5035979;28;20029;-68
2023/10/26 05:18:29;;;;;;;4.15;3.33;;;;;;;20.26;46.49;99644.06;5033746;28;20064;-69
2023/10/26 05:20:55;;;;;;;4.88;4.05;;;;;;;20.44;46.43;99671.47;5028413;28;20049;-67
2023/10/26 05:23:20;;;;;;;5.38;3.90;;;;;;;20.44;46.56;99674.09;5031079;28;20134;-68
2023/10/26 05:25:47;;;;;;;4.35;3.70;;;;;;;20.43;46.50;99663.75;5032103;28;20053;-68
2023/10/26 05:28:13;;;;;;;5.28;4.10;;;;;;;20.45;46.57;99672.28;5028906;28;20038;-68
2023/10/26 05:30:39;;;;;;;4.05;3.65;;;;;;;20.47;46.43;99675.53;5042801;28;20073;-68
2023/10/26 05:33:04;;;;;;;4.47;3.70;;;;;;;20.44;46.59;99671.47;5029690;28;20053;-68
2023/10/26 05:35:30;;;;;;;4.82;3.58;;;;;;;20.47;46.45;99676.34;5016441;28;20032;-68
2023/10/26 05:37:55;;;;;;;4.97;3.70;;;;;;;20.46;46.56;99673.88;5012169;28;20046;-68
2023/10/26 05:40:21;;;;;;;4.15;3.53;;;;;;;20.42;46.48;99672.69;5009842;28;20045;-67
2023/10/26 05:42:46;;;;;;;4.72;3.67;;;;;;;20.45;46.46;99669.63;5017258;28;20045;-68
2023/10/26 05:45:12;;;;;;;4.07;3.67;;;;;;;20.42;46.56;99655.00;5024090;28;20119;-68
2023/10/26 05:47:37;;;;;;;4.45;3.88;;;;;;;20.45;46.64;99665.16;5027294;28;20044;-68
2023/10/26 05:50:04;;;;;;;4.68;3.92;;;;;;;20.41;46.55;99660.50;5026945;28;20427;-67
2023/10/26 05:52:30;;;;;;;5.10;3.67;;;;;;;20.47;46.49;99668.41;5038433;28;20040;-68
2023/10/26 05:54:55;;;;;;;5.15;3.92;;;;;;;20.44;46.51;99665.38;5030515;28;20036;-68
2023/10/26 05:57:21;;;;;;;5.18;3.50;;;;;;;20.42;46.60;99659.47;5029358;28;20041;-69
2023/10/26 05:59:47;;;;;;;4.70;3.70;;;;;;;20.43;46.40;99661.09;5013199;28;20041;-68
2023/10/26 06:02:12;;;;;;;4.38;3.60;;;;;;;20.43;46.46;99661.09;5021501;28;20045;-68
2023/10/26 06:04:38;;;;;;;4.38;3.75;;;;;;;20.43;46.48;99661.91;5010476;28;20044;-68
2023/10/26 06:07:03;;;;;;;4.70;3.88;;;;;;;20.42;46.50;99665.56;5012410;28;20439;-68
2023/10/26 06:09:29;;;;;;;5.63;4.47;;;;;;;20.43;46.50;99667.19;5031692;28;20068;-68
2023/10/26 06:11:55;;;;;;;4.97;3.95;;;;;;;20.48;46.39;99669.22;5028958;28;20656;-69
2023/10/26 06:14:21;;;;;;;5.47;3.50;;;;;;;20.56;46.32;99674.25;5028094;28;20040;-68
2023/10/26 06:16:46;;;;;;;4.55;3.75;;;;;;;20.65;46.03;99677.47;5026063;28;20041;-68
2023/10/26 06:19:12;;;;;;;3.90;3.30;;;;;;;20.84;45.90;99678.38;5029525;28;20049;-68
2023/10/26 06:21:38;;;;;;;3.97;3.58;;;;;;;21.33;45.04;99672.31;5029634;28;20025;-68
2023/10/26 06:24:05;;;;;;;4.05;3.42;;;;;;;22.15;43.72;99673.75;5023661;28;20111;-68
2023/10/26 06:26:31;;;;;;;4.18;3.60;;;;;;;22.39;42.75;99668.53;5025465;28;20503;-68
2023/10/26 06:28:56;;;;;;;4.20;3.70;;;;;;;22.27;43.31;99677.28;5025614;28;20029;-68
2023/10/26 06:31:22;;;;;;;4.07;3.67;;;;;;;22.19;43.50;99676.75;5029116;28;20041;-68
2023/10/26 06:33:47;;;;;;;5.15;3.72;;;;;;;22.04;43.69;99687.69;5018698;28;20037;-68
2023/10/26 06:36:13;;;;;;;4.47;3.92;;;;;;;21.94;43.97;99684.78;5025716;28;20091;-68
2023/10/26 06:38:40;;;;;;;4.72;3.75;;;;;;;21.71;44.45;99696.81;5027516;28;20049;-68
2023/10/26 06:41:06;;;;;;;4.55;3.65;;;;;;;21.65;44.61;99688.94;5024950;28;20042;-68
2023/10/26 06:43:32;;;;;;;4.28;3.40;;;;;;;21.56;44.92;99685.78;5027879;28;20616;-68
2023/10/26 06:46:01;;;;;;;4.10;3.50;;;;;;;21.46;45.00;99685.44;5024032;28;20044;-68
2023/10/26 06:48:26;;;;;;;3.97;3.58;;;;;;;21.43;45.38;99691.19;5030954;28;20068;-68
2023/10/26 06:51:00;;;;;;;4.97;4.10;;;;;;;21.41;45.16;99690.59;5033954;28;20116;-69
2023/10/26 06:53:27;;;;;;;4.75;3.83;;;;;;;21.36;45.57;99698.34;5022504;28;20033;-68
2023/10/26 06:55:52;;;;;;;3.88;3.42;;;;;;;21.35;45.61;99700.19;5024686;28;20040;-68
2023/10/26 06:58:18;;;;;;;4.57;3.90;;;;;;;21.33;45.58;99698.78;5023742;28;20029;-68
2023/10/26 07:00:44;;;;;;;4.00;3.40;;;;;;;21.29;45.41;99692.31;5021550;28;20046;-68
2023/10/26 07:03:10;;;;;;;3.90;3.40;;;;;;;21.25;45.71;99693.78;5025998;28;20215;-68
2023/10/26 07:05:36;;;;;;;4.18;3.58;;;;;;;21.24;45.81;99698.25;5026437;28;20496;-68
2023/10/26 07:08:02;;;;;;;4.85;3.60;;;;;;;21.16;45.62;99687.88;5025862;28;20382;-68
2023/10/26 07:10:27;;;;;;;4.22;3.72;;;;;;;21.22;45.87;99700.28;5024226;28;20037;-68
2023/10/26 07:12:53;;;;;;;4.70;3.80;;;;;;;21.19;45.92;99705.22;5026765;28;20112;-68
2023/10/26 07:15:18;;;;;;;4.18;3.78;;;;;;;21.21;45.83;99711.09;5028353;28;20087;-68
2023/10/26 07:17:44;;;;;;;4.00;3.35;;;;;;;21.03;45.84;99686.19;5023624;28;20045;-68
2023/10/26 07:20:12;;;;;;;4.22;3.67;;;;;;;21.16;45.99;99711.72;5022026;28;20045;-68
2023/10/26 07:22:39;;;;;;;4.72;3.88;;;;;;;21.15;45.87;99706.66;5019208;28;20049;-68
2023/10/26 07:25:06;;;;;;;4.28;3.72;;;;;;;21.08;45.93;99696.13;5022949;28;20042;-68
2023/10/26 07:27:32;;;;;;;3.72;3.13;;;;;;;21.07;45.82;99700.59;5024755;28;20032;-67
2023/10/26 07:29:59;;;;;;;4.10;3.50;;;;;;;21.09;45.84;99705.69;5024770;28;20041;-67
2023/10/26 07:32:25;;;;;;;4.60;3.70;;;;;;;21.04;46.00;99700.22;5019424;28;20037;-67
2023/10/26 07:34:51;;;;;;;4.20;3.65;;;;;;;21.09;46.13;99697.72;5026799;28;20379;-67
2023/10/26 07:37:17;;;;;;;4.82;3.80;;;;;;;21.04;45.93;99698.38;5021888;28;20052;-67
2023/10/26 07:39:43;;;;;;;4.50;3.88;;;;;;;21.07;45.83;99697.13;5025143;28;20040;-67
2023/10/26 07:42:08;;;;;;;4.78;3.55;;;;;;;21.01;46.17;99688.22;5028210;28;20049;-66
2023/10/26 07:44:34;;;;;;;5.45;3.90;;;;;;;21.03;46.03;99691.47;5025170;28;20048;-67
2023/10/26 07:46:59;;;;;;;6.95;4.32;;;;;;;20.99;46.06;99692.91;5025381;28;20045;-67
2023/10/26 07:49:25;;;;;;;4.63;3.67;;;;;;;21.02;45.85;99696.97;5025920;28;20033;-67
2023/10/26 07:51:51;;;;;;;5.32;4.03;;;;;;;20.99;45.69;99702.69;5024669;28;20065;-66
2023/10/26 07:54:17;;;;;;;6.50;4.20;;;;;;;20.97;46.10;99694.16;5018967;28;20041;-66
2023/10/26 07:56:43;;;;;;;6.40;4.63;;;;;;;20.98;45.94;99699.22;5025137;28;20087;-67
2023/10/26 07:59:08;;;;;;;5.47;4.45;;;;;;;20.97;45.82;99697.59;5020908;28;20037;-67
2023/10/26 08:01:34;;;;;;;4.97;4.00;;;;;;;20.93;46.02;99690.31;5023557;28;20487;-66
2023/10/26 08:03:59;;;;;;;5.03;4.40;;;;;;;20.97;45.88;99700.25;5024696;28;20085;-67
2023/10/26 08:06:25;;;;;;;5.97;4.35;;;;;;;21.00;45.86;99704.28;5024543;28;20099;-67
2023/10/26 08:08:53;;;;;;;5.32;4.30;;;;;;;20.97;45.85;99700.25;5027485;28;20041;-66
2023/10/26 08:11:19;;;;;;;5.70;4.53;;;;;;;20.97;45.84;99710.03;5020923;28;20076;-66
2023/10/26 08:13:45;;;;;;;4.28;3.78;;;;;;;20.98;45.97;99706.34;5028475;28;20084;-66
2023/10/26 08:16:11;;;;;;;4.55;3.78;;;;;;;20.95;46.02;99704.13;5024625;28;20617;-67
2023/10/26 08:18:37;;;;;;;5.18;4.35;;;;;;;20.98;46.07;99711.66;5021217;28;20030;-66
2023/10/26 08:21:03;;;;;;;7.18;4.60;;;;;;;20.97;45.96;99708.19;5025230;28;20372;-66
2023/10/26 08:23:32;;;;;;;4.78;4.05;;;;;;;20.95;46.16;99714.72;5022000;28;20144;-66
2023/10/26 08:26:06;;;;;;;5.97;4.57;;;;;;;20.94;45.94;99713.09;5027125;28;20061;-66
2023/10/26 08:28:33;;;;;;;6.30;4.40;;;;;;;20.89;46.06;99700.53;5026565;28;20671;-67
2023/10/26 08:31:00;;;;;;;6.45;4.50;;;;;;;20.95;45.94;99714.72;5019719;28;20049;-67
2023/10/26 08:33:27;;;;;;;4.55;3.97;;;;;;;21.02;45.85;99729.56;5017719;28;20054;-66
2023/10/26 08:35:52;;;;;;;5.13;4.15;;;;;;;21.11;45.82;99722.16;5025601;28;20652;-66
2023/10/26 08:38:18;;;;;;;5.50;4.03;;;;;;;21.32;45.26;99727.09;5023104;28;20044;-66
2023/10/26 08:40:51;;;;;;;5.03;4.03;;;;;;;21.46;44.88;99730.47;5025741;28;20052;-66
2023/10/26 08:43:21;;;;;;;4.78;4.07;;;;;;;21.53;44.72;99727.75;5023782;28;20079;-67
2023/10/26 08:45:48;;;;;;;4.88;3.95;;;;;;;21.53;45.12;99728.56;5020000;28;21853;-67
2023/10/26 08:48:16;;;;;;;5.60;4.32;;;;;;;21.46;45.23;99727.81;5024159;28;20080;-67
2023/10/26 08:50:42;;;;;;;5.25;4.25;;;;;;;21.44;45.30;99729.88;5012508;28;20033;-67
2023/10/26 08:53:08;;;;;;;5.15;4.07;;;;;;;21.44;45.27;99737.00;5021414;28;20087;-67
2023/10/26 08:55:37;;;;;;;5.43;4.47;;;;;;;21.42;45.54;99742.53;5017016;28;20037;-67
2023/10/26 08:58:03;;;;;;;4.47;4.07;;;;;;;21.31;45.01;99728.13;5017496;28;20391;-67
2023/10/26 09:00:30;;;;;;;5.47;4.10;;;;;;;21.39;45.39;99749.06;5017552;28;20038;-68
2023/10/26 09:02:56;;;;;;;4.68;4.15;;;;;;;21.33;45.46;99743.81;5025666;28;20491;-66
2023/10/26 09:05:22;;;;;;;5.53;4.07;;;;;;;21.30;45.57;99744.25;5021727;28;20033;-66
2023/10/26 09:07:48;;;;;;;4.82;4.13;;;;;;;21.29;45.88;99756.66;5027583;28;20048;-67
2023/10/26 09:10:31;;;;;;;6.32;4.50;;;;;;;21.26;45.75;99754.47;5026939;28;20099;-67
2023/10/26 09:13:01;;;;;;;5.13;4.30;;;;;;;21.29;45.47;99751.38;5030589;28;20112;-66
2023/10/26 09:15:28;;;;;;;5.95;4.40;;;;;;;21.28;45.52;99756.88;5020173;28;20064;-67
2023/10/26 09:17:57;;;;;;;5.13;4.20;;;;;;;21.28;45.83;99760.34;5021193;28;20064;-66
2023/10/26 09:20:24;;;;;;;5.60;4.30;;;;;;;21.26;45.69;99751.00;5023440;28;20079;-67
2023/10/26 09:22:49;;;;;;;5.80;4.90;;;;;;;21.23;45.82;99757.50;5021370;28;20041;-67
2023/10/26 09:25:15;;;;;;;5.70;4.25;;;;;;;21.22;45.90;99755.06;5026959;28;20099;-67
2023/10/26 09:27:43;;;;;;;5.13;3.95;;;;;;;21.23;45.86;99746.09;5023994;28;20061;-67
2023/10/26 09:30:29;;;;;;;6.25;4.57;;;;;;;21.18;45.89;99744.09;5026461;28;20976;-67
2023/10/26 09:32:59;;;;;;;5.30;4.50;;;;;;;21.17;45.77;99736.34;5030244;28;20033;-67
2023/10/26 09:35:26;;;;;;;5.63;4.40;;;;;;;21.19;45.88;99742.28;5015060;28;20087;-67
2023/10/26 09:37:52;;;;;;;5.80;4.63;;;;;;;21.09;45.73;99729.50;5031345;28;20389;-67
2023/10/26 09:40:20;;;;;;;6.60;4.78;;;;;;;21.10;45.86;99739.06;5032781;28;20043;-67
2023/10/26 09:42:47;;;;;;;6.57;4.35;;;;;;;21.12;45.79;99737.81;5025416;28;20502;-67
2023/10/26 09:45:13;;;;;;;4.97;4.30;;;;;;;21.15;45.73;99741.06;5027200;28;20548;-67
2023/10/26 09:47:39;;;;;;;6.47;4.80;;;;;;;21.12;45.78;99732.53;5033059;28;20132;-67
2023/10/26 09:50:05;;;;;;;6.30;4.65;;;;;;;21.09;45.79;99742.72;5025334;28;20065;-67
2023/10/26 09:52:31;;;;;;;7.32;4.90;;;;;;;21.05;45.71;99734.41;5036963;28;20103;-67
2023/10/26 09:54:57;;;;;;;7.60;4.45;;;;;;;21.08;45.76;99743.75;5024732;28;20037;-67
2023/10/26 09:57:34;;;;;;;5.68;4.28;;;;;;;21.09;45.92;99748.84;5028584;28;20475;-67
2023/10/26 10:00:06;;;;;;;6.07;4.80;;;;;;;21.08;45.68;99749.06;5027095;28;20098;-67
2023/10/26 10:02:38;;;;;;;5.28;4.22;;;;;;;21.07;45.71;99758.03;5026626;28;20084;-67
2023/10/26 10:05:04;;;;;;;5.88;4.53;;;;;;;21.09;45.96;99761.25;5014729;28;20037;-67
2023/10/26 10:07:45;;;;;;;6.93;4.68;;;;;;;21.07;45.93;99761.47;5027249;28;20431;-67
2023/10/26 10:10:13;;;;;;;6.45;4.43;;;;;;;21.06;45.69;99765.16;5016513;28;20785;-67
2023/10/26 10:12:39;;;;;;;6.18;4.63;;;;;;;21.07;45.97;99765.97;5024570;28;20582;-67
2023/10/26 10:15:07;;;;;;;7.30;4.43;;;;;;;21.07;45.87;99756.19;5014997;28;20776;-65
2023/10/26 10:17:45;;;;;;;5.65;4.60;;;;;;;21.05;45.95;99752.13;5018280;28;20830;-66
2023/10/26 10:20:13;;;;;;;5.22;4.35;;;;;;;21.05;46.07;99760.06;5042052;28;20565;-66
2023/10/26 10:22:48;;;;;;;5.93;4.20;;;;;;;21.06;45.90;99754.56;5023559;28;20041;-66
2023/10/26 10:25:17;;;;;;;5.18;4.40;;;;;;;21.05;45.56;99755.59;5024986;28;20034;-66
2023/10/26 10:27:48;;;;;;;5.55;4.57;;;;;;;21.10;45.66;99750.47;5026876;28;20052;-65
2023/10/26 10:30:16;;;;;;;6.38;4.78;;;;;;;21.18;45.61;99757.31;5021611;28;20052;-66
2023/10/26 10:32:46;;;;;;;6.25;5.00;;;;;;;21.33;45.25;99755.22;5021645;28;20628;-66
2023/10/26 10:35:22;;;;;;;5.43;4.60;;;;;;;21.44;45.11;99756.34;5027675;28;20034;-66
2023/10/26 10:38:16;;;;;;;6.80;4.68;;;;;;;21.52;44.99;99756.06;5029582;28;20034;-66
2023/10/26 10:40:54;;;;;;;6.95;4.63;;;;;;;21.54;44.82;99754.03;5021038;28;20049;-66
2023/10/26 10:43:45;;;;;;;5.97;4.75;;;;;;;21.52;44.90;99750.78;5025875;28;20040;-65
2023/10/26 10:46:23;;;;;;;5.28;4.35;;;;;;;21.48;45.01;99754.91;5021721;28;20368;-66
2023/10/26 10:48:58;;;;;;;5.95;4.60;;;;;;;21.49;44.89;99761.00;5021497;28;20510;-66
2023/10/26 10:51:44;;;;;;;5.22;4.40;;;;;;;21.45;45.28;99754.53;5028841;28;20487;-66
2023/10/26 10:54:15;;;;;;;6.75;4.70;;;;;;;21.45;45.07;99751.88;5025489;28;20564;-66
2023/10/26 10:56:44;;;;;;;5.03;4.32;;;;;;;21.41;45.27;99749.66;5029396;28;20430;-66
2023/10/26 10:59:23;;;;;;;6.85;5.35;;;;;;;21.42;45.19;99753.94;5022974;28;20578;-65
2023/10/26 11:01:50;;;;;;;6.10;4.82;;;;;;;21.39;45.19;99742.97;5018928;28;20047;-66
2023/10/26 11:04:16;;;;;;;6.45;5.10;;;;;;;21.40;45.47;99748.03;5030367;28;20049;-66
2023/10/26 11:06:49;;;;;;;5.82;4.72;;;;;;;21.37;45.72;99747.66;5021517;28;20632;-66
2023/10/26 11:09:40;;;;;;;7.00;5.07;;;;;;;21.35;45.59;99734.63;5024715;28;20170;-66
2023/10/26 11:12:11;;;;;;;5.25;4.22;;;;;;;21.33;45.33;99728.72;5022117;28;20134;-66
2023/10/26 11:14:49;;;;;;;6.45;4.90;;;;;;;21.32;45.47;99731.59;5024249;28;20496;-66
2023/10/26 11:17:19;;;;;;;5.85;4.65;;;;;;;21.36;45.43;99735.44;5019321;28;20059;-66
2023/10/26 11:19:45;;;;;;;5.72;4.90;;;;;;;21.32;45.50;99729.75;5021831;28;20053;-66
2023/10/26 11:22:15;;;;;;;6.10;5.25;;;;;;;21.30;45.43;99731.00;5015722;28;20143;-66
2023/10/26 11:24:42;;;;;;;7.05;4.90;;;;;;;21.33;45.64;99734.03;5022336;28;20152;-66
2023/10/26 11:27:10;;;;;;;5.88;4.75;;;;;;;21.26;45.43;99720.03;5023691;28;20080;-65
2023/10/26 11:30:04;;;;;;;5.22;4.38;;;;;;;21.31;45.51;99730.78;5020765;28;20041;-66
2023/10/26 11:32:30;;;;;;;6.30;4.93;;;;;;;21.30;45.79;99729.16;5020306;28;20567;-66
2023/10/26 11:35:09;;;;;;;5.93;5.13;;;;;;;21.29;45.37;99722.25;5024538;28;20036;-66